Magne Viking — OURK2 — position and weather

sailwx.info

Track history (hours):
 
Tides and Currents Weather Stations Pressure Air Temp Water Temp Dewpoint Dewpoint Depression Visibility Wind Speed Wind Dir Waves Ship Positions

Magne Viking

Last reported at 2016-Feb-04 11:09 UTC. Time now 2016-Feb-12 07:50 UTC.
Position N 56°42' W 002°26'.

Length 85 m; draft 6.4 m.

Type: Tug. MMSI: 219375000.

Date/timePositionNaut miles runAvg speedWind from/ knotsBaromVisibWave heightAir tempDewpointWater temp
2016-Feb-04 11:09N 56°42' W 002°26'1 2.5
2016-Feb-04 10:34N 56°42' W 002°23'1 0.8
2016-Feb-04 09:33N 56°42' W 002°21'30 9.9
2016-Feb-04 06:33N 57°09' W 001°59'3 2.5
2016-Feb-04 05:30N 57°12' W 002°01'0 0.0
2016-Feb-04 02:26N 57°12' W 002°01'0 0.0
2016-Feb-04 00:21N 57°12' W 002°01'0 0.0
2016-Feb-03 22:29N 57°12' W 002°01'0 0.0
2016-Feb-03 21:17N 57°12' W 002°01'0 0.0
2016-Feb-03 20:30N 57°12' W 002°01'0 0.0
2016-Feb-03 19:31N 57°12' W 002°01'0 0.0
2016-Feb-03 18:19N 57°12' W 002°01'0 0.0
2016-Feb-03 16:21N 57°12' W 002°01'0 0.0
2016-Feb-03 15:10N 57°12' W 002°01'0 0.0
2016-Feb-03 14:28N 57°12' W 002°01'0 0.0
2016-Feb-03 13:23N 57°12' W 002°01'0 0.0
2016-Feb-03 05:10N 57°12' W 002°01'0 0.0
2016-Feb-03 04:11N 57°12' W 002°01'0 0.0
2016-Feb-03 03:29N 57°12' W 002°01'0 0.0
2016-Feb-03 02:30N 57°12' W 002°01'0 0.0
2016-Feb-03 01:31N 57°12' W 002°01'0 0.0
2016-Feb-03 00:20N 57°12' W 002°01'0 0.0
2016-Feb-02 23:26N 57°12' W 002°01'0 0.0
2016-Feb-02 22:15N 57°12' W 002°01'0 0.0
2016-Feb-02 21:33N 57°12' W 002°01'0 0.0
2016-Feb-02 18:29N 57°12' W 002°01'0 0.0
2016-Feb-02 16:13N 57°12' W 002°01'0 0.0
2016-Feb-02 14:08N 57°12' W 002°01'0 0.0
2016-Feb-02 13:33N 57°12' W 002°01'0 0.0
2016-Feb-02 10:05N 57°12' W 002°01'0 0.0
2016-Feb-02 07:19N 57°12' W 002°01'0 0.0
2016-Feb-02 06:31N 57°12' W 002°01'0 0.0
2016-Feb-02 04:09N 57°12' W 002°01'0 0.0
2016-Feb-01 20:08N 57°12' W 002°01'0 0.0
2016-Feb-01 14:30N 57°12' W 002°01'0 0.0
2016-Feb-01 07:17N 57°12' W 002°01'0 0.0
2016-Jan-31 16:09N 57°12' W 002°01'3227.0
2016-Jan-31 16:08N 57°09' W 002°03'3 3.1
2016-Jan-31 15:10N 57°12' W 002°01'3 1.2
2016-Jan-31 12:21N 57°09' W 002°03'1 0.6
2016-Jan-31 11:06N 57°09' W 002°05'4 0.7
2016-Jan-31 05:11N 57°12' W 002°01'0 0.0
2016-Jan-31 04:29N 57°12' W 002°01'0 0.0
2016-Jan-31 02:30N 57°12' W 002°01'0 0.0
2016-Jan-30 23:21N 57°12' W 002°01'0 0.0
2016-Jan-30 22:03N 57°12' W 002°01'0 0.0
2016-Jan-30 21:16N 57°12' W 002°01'0 0.0
2016-Jan-30 19:23N 57°12' W 002°01'0 0.0
2016-Jan-30 17:25N 57°12' W 002°01'0 0.0
2016-Jan-30 15:20N 57°12' W 002°01'0 0.1
2016-Jan-30 14:32N 57°12' W 002°01'0 0.0
2016-Jan-30 11:28N 57°12' W 002°01'0 0.0
2016-Jan-30 09:24N 57°12' W 002°01'0 0.0
2016-Jan-30 07:25N 57°12' W 002°01'0 0.0
2016-Jan-30 00:24N 57°12' W 002°01'0 0.0
2016-Jan-29 22:13N 57°12' W 002°01'0 0.0
2016-Jan-28 18:26N 57°12' W 002°01'  
2016-Jan-26 12:32N 57°12' W 002°01'0 0.0
2016-Jan-26 11:33N 57°12' W 002°01'0 0.0
2016-Jan-26 05:19N 57°12' W 002°01'0 0.0
2016-Jan-25 19:31N 57°12' W 002°01'0 0.0
2016-Jan-25 17:33N 57°12' W 002°01'  
Track history (hours):
 
Tides and Currents Weather Stations Pressure Air Temp Water Temp Dewpoint Dewpoint Depression Visibility Wind Speed Wind Dir Waves Ship Positions

Magne Viking

Last reported at 2016-Feb-04 11:09 UTC. Time now 2016-Feb-12 07:50 UTC.
Position N 56°42' W 002°26'.

Length 85 m; draft 6.4 m.

Type: Tug. MMSI: 219375000.

Date/timePositionNaut miles runAvg speedWind from/ knotsBaromVisibWave heightAir tempDewpointWater temp
2016-Feb-04 11:09N 56°42' W 002°26'1 2.5
2016-Feb-04 10:34N 56°42' W 002°23'1 0.8
2016-Feb-04 09:33N 56°42' W 002°21'30 9.9
2016-Feb-04 06:33N 57°09' W 001°59'3 2.5
2016-Feb-04 05:30N 57°12' W 002°01'0 0.0
2016-Feb-04 02:26N 57°12' W 002°01'0 0.0
2016-Feb-04 00:21N 57°12' W 002°01'0 0.0
2016-Feb-03 22:29N 57°12' W 002°01'0 0.0
2016-Feb-03 21:17N 57°12' W 002°01'0 0.0
2016-Feb-03 20:30N 57°12' W 002°01'0 0.0
2016-Feb-03 19:31N 57°12' W 002°01'0 0.0
2016-Feb-03 18:19N 57°12' W 002°01'0 0.0
2016-Feb-03 16:21N 57°12' W 002°01'0 0.0
2016-Feb-03 15:10N 57°12' W 002°01'0 0.0
2016-Feb-03 14:28N 57°12' W 002°01'0 0.0
2016-Feb-03 13:23N 57°12' W 002°01'0 0.0
2016-Feb-03 05:10N 57°12' W 002°01'0 0.0
2016-Feb-03 04:11N 57°12' W 002°01'0 0.0
2016-Feb-03 03:29N 57°12' W 002°01'0 0.0
2016-Feb-03 02:30N 57°12' W 002°01'0 0.0
2016-Feb-03 01:31N 57°12' W 002°01'0 0.0
2016-Feb-03 00:20N 57°12' W 002°01'0 0.0
2016-Feb-02 23:26N 57°12' W 002°01'0 0.0
2016-Feb-02 22:15N 57°12' W 002°01'0 0.0
2016-Feb-02 21:33N 57°12' W 002°01'0 0.0
2016-Feb-02 18:29N 57°12' W 002°01'0 0.0
2016-Feb-02 16:13N 57°12' W 002°01'0 0.0
2016-Feb-02 14:08N 57°12' W 002°01'0 0.0
2016-Feb-02 13:33N 57°12' W 002°01'0 0.0
2016-Feb-02 10:05N 57°12' W 002°01'0 0.0
2016-Feb-02 07:19N 57°12' W 002°01'0 0.0
2016-Feb-02 06:31N 57°12' W 002°01'0 0.0
2016-Feb-02 04:09N 57°12' W 002°01'0 0.0
2016-Feb-01 20:08N 57°12' W 002°01'0 0.0
2016-Feb-01 14:30N 57°12' W 002°01'0 0.0
2016-Feb-01 07:17N 57°12' W 002°01'0 0.0
2016-Jan-31 16:09N 57°12' W 002°01'3227.0
2016-Jan-31 16:08N 57°09' W 002°03'3 3.1
2016-Jan-31 15:10N 57°12' W 002°01'3 1.2
2016-Jan-31 12:21N 57°09' W 002°03'1 0.6
2016-Jan-31 11:06N 57°09' W 002°05'4 0.7
2016-Jan-31 05:11N 57°12' W 002°01'0 0.0
2016-Jan-31 04:29N 57°12' W 002°01'0 0.0
2016-Jan-31 02:30N 57°12' W 002°01'0 0.0
2016-Jan-30 23:21N 57°12' W 002°01'0 0.0
2016-Jan-30 22:03N 57°12' W 002°01'0 0.0
2016-Jan-30 21:16N 57°12' W 002°01'0 0.0
2016-Jan-30 19:23N 57°12' W 002°01'0 0.0
2016-Jan-30 17:25N 57°12' W 002°01'0 0.0
2016-Jan-30 15:20N 57°12' W 002°01'0 0.1
2016-Jan-30 14:32N 57°12' W 002°01'0 0.0
2016-Jan-30 11:28N 57°12' W 002°01'0 0.0
2016-Jan-30 09:24N 57°12' W 002°01'0 0.0
2016-Jan-30 07:25N 57°12' W 002°01'0 0.0
2016-Jan-30 00:24N 57°12' W 002°01'0 0.0
2016-Jan-29 22:13N 57°12' W 002°01'0 0.0
2016-Jan-28 18:26N 57°12' W 002°01'  
2016-Jan-26 12:32N 57°12' W 002°01'0 0.0
2016-Jan-26 11:33N 57°12' W 002°01'0 0.0
2016-Jan-26 05:19N 57°12' W 002°01'0 0.0
2016-Jan-25 19:31N 57°12' W 002°01'0 0.0
2016-Jan-25 17:33N 57°12' W 002°01'  

Dump ship's entire track history